Time;durP1;ratioP1;P1;durP2;ratioP2;P2;SDS_P1;SDS_P2;PMS_P1;PMS_P2;Temp;Humidity;BMP_temperature;BMP_pressure;BME280_temperature;BME280_humidity;BME280_pressure;Samples;Min_cycle;Max_cycle;Signal;HPM_P1;HPM_P2
2023/10/27 08:42:53;;;;;;;6.57;2.70;;;13.10;99.90;;;;;;4948737;23;20307;-73
2023/10/27 08:45:21;;;;;;;4.23;1.93;;;13.40;99.90;;;;;;4932821;29;20663;-71
2023/10/27 08:47:48;;;;;;;7.27;2.13;;;13.60;99.90;;;;;;4929671;29;20216;-72
2023/10/27 08:50:16;;;;;;;8.03;2.00;;;13.70;99.90;;;;;;4918919;29;20240;-72
2023/10/27 08:52:43;;;;;;;4.97;2.23;;;13.70;99.90;;;;;;4936117;29;20200;-72
2023/10/27 08:55:11;;;;;;;4.87;2.13;;;13.80;99.90;;;;;;4931120;29;20217;-71
2023/10/27 08:57:38;;;;;;;7.10;1.93;;;13.80;99.90;;;;;;4924385;29;20248;-72
2023/10/27 09:00:08;;;;;;;3.17;1.77;;;13.90;99.90;;;;;;4937831;29;20754;-72
2023/10/27 09:02:36;;;;;;;7.77;2.20;;;13.90;99.90;;;;;;4937605;29;20209;-72
2023/10/27 09:05:05;;;;;;;4.07;1.90;;;13.80;99.90;;;;;;4931996;29;20205;-72
2023/10/27 09:07:32;;;;;;;12.63;2.63;;;13.80;99.90;;;;;;4921714;29;20584;-71
2023/10/27 09:09:59;;;;;;;4.80;1.80;;;13.60;99.90;;;;;;4937751;29;20241;-71
2023/10/27 09:12:28;;;;;;;9.33;2.10;;;13.70;99.90;;;;;;4937614;29;20207;-71
2023/10/27 09:15:04;;;;;;;4.13;1.60;;;13.60;99.90;;;;;;4932244;29;20707;-71
2023/10/27 09:17:50;;;;;;;3.90;1.47;;;13.50;99.90;;;;;;4921353;29;20216;-71
2023/10/27 09:20:17;;;;;;;5.10;1.50;;;13.50;99.90;;;;;;4937618;29;20225;-72
2023/10/27 09:22:55;;;;;;;3.87;1.57;;;13.50;99.90;;;;;;4937573;29;20197;-72
2023/10/27 09:25:28;;;;;;;5.80;1.73;;;13.70;99.90;;;;;;4928869;29;20729;-72
2023/10/27 09:27:55;;;;;;;5.73;1.53;;;13.60;99.90;;;;;;4923803;29;20208;-72
2023/10/27 09:30:29;;;;;;;5.23;1.50;;;13.60;99.90;;;;;;4936980;29;20233;-71
2023/10/27 09:33:10;;;;;;;8.13;1.63;;;13.60;99.90;;;;;;4937117;29;20222;-71
2023/10/27 09:35:37;;;;;;;2.70;1.37;;;13.70;99.90;;;;;;4926743;29;20217;-71
2023/10/27 09:38:04;;;;;;;3.27;1.20;;;13.60;99.90;;;;;;4924212;29;20213;-71
2023/10/27 09:40:31;;;;;;;8.23;1.50;;;13.50;99.90;;;;;;4936908;29;20255;-73
2023/10/27 09:43:02;;;;;;;10.00;1.37;;;13.30;99.90;;;;;;4932298;29;20302;-73
2023/10/27 09:45:33;;;;;;;6.67;1.60;;;13.20;99.90;;;;;;4918168;29;20261;-73
2023/10/27 09:48:03;;;;;;;8.37;1.83;;;13.20;99.90;;;;;;4923406;29;20300;-74
2023/10/27 09:50:31;;;;;;;6.93;1.60;;;13.20;99.90;;;;;;4936952;29;20228;-73
2023/10/27 09:52:59;;;;;;;3.03;1.63;;;13.20;99.90;;;;;;4936915;29;20287;-74
2023/10/27 09:55:27;;;;;;;1.70;0.90;;;12.90;99.90;;;;;;4927983;29;20214;-74
2023/10/27 09:57:55;;;;;;;3.13;1.43;;;12.90;99.90;;;;;;4921789;29;20245;-73
2023/10/27 10:00:25;;;;;;;1.40;0.70;;;12.90;99.90;;;;;;4936844;29;20231;-74
2023/10/27 10:02:52;;;;;;;1.13;0.70;;;12.90;99.90;;;;;;4936538;29;20211;-72
2023/10/27 10:05:21;;;;;;;2.53;0.80;;;12.80;99.90;;;;;;4928603;29;20680;-72
2023/10/27 10:07:52;;;;;;;1.40;0.90;;;12.80;99.90;;;;;;4920560;29;20247;-72
2023/10/27 10:10:25;;;;;;;3.33;0.97;;;12.80;99.90;;;;;;4929547;29;20249;-72
2023/10/27 10:13:03;;;;;;;2.50;0.90;;;12.90;99.90;;;;;;4920452;29;20297;-70
2023/10/27 10:15:32;;;;;;;7.53;0.90;;;13.00;99.90;;;;;;4927106;29;20210;-69
2023/10/27 10:17:59;;;;;;;3.33;1.00;;;13.00;99.90;;;;;;4920556;29;20714;-71
2023/10/27 10:20:58;;;;;;;4.20;1.10;;;13.10;99.90;;;;;;4936525;29;20323;-70
2023/10/27 10:23:47;;;;;;;1.43;0.90;;;13.20;99.90;;;;;;4936336;29;20630;-71
2023/10/27 10:26:15;;;;;;;2.17;0.83;;;13.30;99.90;;;;;;4921244;29;20210;-73
2023/10/27 10:28:46;;;;;;;2.83;1.00;;;13.50;99.90;;;;;;4926090;29;20591;-75
2023/10/27 10:31:26;;;;;;;2.17;1.00;;;13.50;99.90;;;;;;4936349;29;20619;-74
2023/10/27 10:34:10;;;;;;;2.77;0.83;;;13.60;99.90;;;;;;4936292;29;20204;-74
2023/10/27 10:36:40;;;;;;;1.70;0.80;;;13.70;99.90;;;;;;4917983;29;20322;-75
2023/10/27 10:39:10;;;;;;;2.93;0.90;;;13.90;99.90;;;;;;4933739;29;20233;-72
2023/10/27 10:41:58;;;;;;;2.93;0.83;;;13.90;99.90;;;;;;4935177;29;20204;-72
2023/10/27 10:44:28;;;;;;;3.13;0.87;;;14.00;99.90;;;;;;4933799;29;20296;-70
2023/10/27 10:46:55;;;;;;;3.57;1.03;;;14.20;99.90;;;;;;4921833;29;20217;-70
2023/10/27 10:49:26;;;;;;;22.10;6.30;;;14.10;99.90;;;;;;4934354;29;20240;-69
2023/10/27 10:51:55;;;;;;;7.63;3.47;;;13.90;99.90;;;;;;4934787;29;20579;-68
2023/10/27 10:54:27;;;;;;;5.43;1.07;;;13.90;99.90;;;;;;4934161;29;20205;-68
2023/10/27 10:57:07;;;;;;;4.50;1.30;;;13.80;99.90;;;;;;4921842;29;20687;-68
2023/10/27 10:59:35;;;;;;;5.83;1.00;;;13.80;99.90;;;;;;4934562;29;20229;-69
2023/10/27 11:02:04;;;;;;;3.17;0.90;;;13.70;99.90;;;;;;4934797;29;20209;-69
2023/10/27 11:04:32;;;;;;;2.97;0.90;;;13.90;99.90;;;;;;4934879;29;20217;-67
2023/10/27 11:07:02;;;;;;;3.33;0.67;;;13.90;99.90;;;;;;4927166;29;20627;-68
2023/10/27 11:09:31;;;;;;;1.10;0.70;;;14.00;99.90;;;;;;4915504;29;20280;-68
2023/10/27 11:11:58;;;;;;;3.50;1.00;;;13.90;99.90;;;;;;4915314;29;20232;-68
2023/10/27 11:14:25;;;;;;;2.20;0.80;;;13.80;99.90;;;;;;4917771;29;20204;-69
2023/10/27 11:17:00;;;;;;;3.53;0.80;;;13.70;99.90;;;;;;4928364;29;20220;-70
2023/10/27 11:19:27;;;;;;;3.63;0.73;;;13.80;99.90;;;;;;4933582;29;20227;-72
2023/10/27 11:21:55;;;;;;;2.10;0.87;;;13.90;99.90;;;;;;4934216;29;20213;-72
2023/10/27 11:24:23;;;;;;;2.30;0.70;;;13.90;99.90;;;;;;4927888;29;20214;-71
2023/10/27 11:26:50;;;;;;;2.60;0.90;;;14.00;99.90;;;;;;4922201;29;20208;-72
2023/10/27 11:29:17;;;;;;;1.87;0.70;;;13.90;99.90;;;;;;4933816;29;20604;-72
2023/10/27 11:31:47;;;;;;;9.33;1.33;;;14.00;99.90;;;;;;4933078;29;20210;-72
2023/10/27 11:34:20;;;;;;;1.47;0.60;;;14.00;99.90;;;;;;4929372;29;20606;-72
2023/10/27 11:37:00;;;;;;;4.07;1.00;;;14.10;99.90;;;;;;4921281;29;20209;-72
2023/10/27 11:39:29;;;;;;;3.20;0.80;;;14.30;99.90;;;;;;4933798;29;20220;-72
2023/10/27 11:41:59;;;;;;;3.10;0.90;;;14.50;99.90;;;;;;4934180;29;20209;-72
2023/10/27 11:44:26;;;;;;;2.80;1.00;;;14.80;99.90;;;;;;4932700;29;20296;-72
2023/10/27 11:46:54;;;;;;;1.57;0.90;;;14.90;99.90;;;;;;4933513;29;20205;-72
2023/10/27 11:49:21;;;;;;;2.10;0.80;;;14.90;99.90;;;;;;4933814;29;20683;-72
2023/10/27 11:51:50;;;;;;;2.40;0.90;;;14.90;99.90;;;;;;4934212;29;20303;-71
2023/10/27 11:54:17;;;;;;;3.03;0.90;;;15.10;99.90;;;;;;4932337;29;20617;-72
2023/10/27 11:56:46;;;;;;;3.43;0.90;;;14.90;99.90;;;;;;4933332;29;20204;-71
2023/10/27 11:59:14;;;;;;;1.93;0.90;;;15.20;99.90;;;;;;4933579;29;20312;-72
2023/10/27 12:01:41;;;;;;;7.03;1.47;;;15.40;99.90;;;;;;4933114;29;20304;-72
2023/10/27 12:04:10;;;;;;;2.33;0.83;;;15.50;99.90;;;;;;4932685;29;20639;-72
2023/10/27 12:06:38;;;;;;;3.90;0.90;;;15.50;99.90;;;;;;4934275;29;20620;-72
2023/10/27 12:09:05;;;;;;;1.53;0.90;;;15.60;99.90;;;;;;4933227;29;20260;-72
2023/10/27 12:11:32;;;;;;;2.40;1.00;;;15.80;99.90;;;;;;4927901;29;20695;-72
2023/10/27 12:14:00;;;;;;;3.83;0.90;;;16.00;99.90;;;;;;4917970;29;20697;-71
2023/10/27 12:16:29;;;;;;;1.70;1.00;;;16.20;99.90;;;;;;4932975;29;20296;-73
2023/10/27 12:18:56;;;;;;;2.60;0.80;;;16.30;99.90;;;;;;4933318;29;20233;-72
2023/10/27 12:21:23;;;;;;;4.97;0.73;;;16.00;99.90;;;;;;4933300;29;20215;-72
2023/10/27 12:23:50;;;;;;;3.70;1.37;;;15.90;99.90;;;;;;4931801;29;20209;-72
2023/10/27 12:26:18;;;;;;;2.73;0.93;;;15.70;99.90;;;;;;4933052;29;20296;-70
2023/10/27 12:28:45;;;;;;;2.70;0.70;;;15.50;99.90;;;;;;4933319;29;20204;-71
2023/10/27 12:31:14;;;;;;;2.80;0.93;;;15.40;99.90;;;;;;4932970;29;20208;-70
2023/10/27 12:33:41;;;;;;;3.17;0.80;;;15.20;99.90;;;;;;4932753;29;20201;-71
2023/10/27 12:36:09;;;;;;;1.87;1.27;;;15.20;99.90;;;;;;4915797;29;20214;-71
2023/10/27 12:38:36;;;;;;;3.47;0.90;;;15.20;99.90;;;;;;4933146;29;20205;-72
2023/10/27 12:41:04;;;;;;;4.73;0.93;;;15.00;99.90;;;;;;4920395;29;20630;-74
2023/10/27 12:43:31;;;;;;;2.80;0.70;;;14.80;99.90;;;;;;4936768;29;20552;-71
2023/10/27 12:45:58;;;;;;;2.67;1.20;;;14.80;99.90;;;;;;4917836;29;20221;-71
2023/10/27 12:48:26;;;;;;;3.90;1.60;;;14.70;99.90;;;;;;4921103;29;20207;-72
2023/10/27 12:50:54;;;;;;;4.87;1.10;;;14.80;99.90;;;;;;4936862;29;20236;-75
2023/10/27 12:53:20;;;;;;;3.03;0.80;;;14.70;99.90;;;;;;4936283;29;20683;-73
2023/10/27 12:55:48;;;;;;;2.03;0.90;;;14.70;99.90;;;;;;4919667;29;20210;-73
2023/10/27 12:58:14;;;;;;;2.20;0.73;;;14.70;99.90;;;;;;4934703;29;20291;-72
2023/10/27 13:00:43;;;;;;;1.70;0.70;;;14.50;99.90;;;;;;4936506;29;20239;-71
2023/10/27 13:03:09;;;;;;;1.70;0.80;;;14.60;99.90;;;;;;4936791;29;20217;-74
2023/10/27 13:05:39;;;;;;;2.60;0.80;;;14.80;99.90;;;;;;4921198;29;20573;-70
2023/10/27 13:08:07;;;;;;;2.63;0.60;;;15.00;99.90;;;;;;4921744;29;20216;-71
2023/10/27 13:10:34;;;;;;;2.50;0.70;;;15.30;99.90;;;;;;4935794;29;20599;-71
2023/10/27 13:13:01;;;;;;;1.40;0.57;;;15.20;99.90;;;;;;4936216;29;20217;-73
2023/10/27 13:15:28;;;;;;;0.83;0.40;;;15.30;99.90;;;;;;4921430;29;20661;-71
2023/10/27 13:17:56;;;;;;;2.83;0.50;;;15.30;99.90;;;;;;4932453;29;20280;-71
2023/10/27 13:20:22;;;;;;;1.17;0.50;;;15.20;99.90;;;;;;4935659;29;20722;-72
2023/10/27 13:22:51;;;;;;;1.00;0.70;;;15.30;99.90;;;;;;4935873;29;20235;-72
2023/10/27 13:25:18;;;;;;;1.20;0.67;;;15.40;99.90;;;;;;4922524;29;20216;-71
2023/10/27 13:27:48;;;;;;;3.50;0.53;;;15.30;99.90;;;;;;4930409;29;20209;-70
2023/10/27 13:30:15;;;;;;;2.73;0.80;;;15.30;99.90;;;;;;4935099;29;20339;-71
2023/10/27 13:32:42;;;;;;;0.93;0.60;;;15.10;99.90;;;;;;4935550;29;20205;-71
2023/10/27 13:35:10;;;;;;;4.30;0.70;;;14.90;99.90;;;;;;4924749;29;20687;-70
2023/10/27 13:37:37;;;;;;;1.37;0.43;;;14.90;99.90;;;;;;4935524;29;20216;-72
2023/10/27 13:40:08;;;;;;;1.20;0.40;;;15.00;99.90;;;;;;4935965;29;20239;-73
2023/10/27 13:42:35;;;;;;;0.87;0.40;;;14.90;99.90;;;;;;4936192;29;20296;-69
2023/10/27 13:45:01;;;;;;;2.03;0.30;;;14.90;99.90;;;;;;4923932;29;20831;-68
2023/10/27 13:47:28;;;;;;;1.70;0.37;;;14.80;99.90;;;;;;4928469;29;20213;-73
2023/10/27 13:49:56;;;;;;;0.70;0.33;;;14.60;99.90;;;;;;4935327;29;20243;-72
2023/10/27 13:52:23;;;;;;;2.00;0.77;;;14.70;99.90;;;;;;4934884;29;20236;-72
2023/10/27 13:54:50;;;;;;;2.87;0.40;;;14.80;99.90;;;;;;4926106;29;20308;-72
2023/10/27 13:57:19;;;;;;;2.47;0.40;;;14.80;99.90;;;;;;4926348;29;20292;-72
2023/10/27 13:59:46;;;;;;;2.10;0.40;;;14.70;99.90;;;;;;4934440;29;20346;-72
2023/10/27 14:02:13;;;;;;;0.63;0.40;;;14.70;99.90;;;;;;4917063;29;20206;-73
2023/10/27 14:04:40;;;;;;;2.10;0.50;;;14.50;99.90;;;;;;4917250;29;20220;-71
2023/10/27 14:07:07;;;;;;;1.33;0.40;;;14.50;99.90;;;;;;4924841;29;20215;-72
2023/10/27 14:09:33;;;;;;;1.37;0.50;;;14.40;99.90;;;;;;4935207;29;20323;-70
2023/10/27 14:12:01;;;;;;;0.70;0.30;;;14.30;99.90;;;;;;4935420;29;20208;-72
2023/10/27 14:14:30;;;;;;;1.20;0.50;;;14.30;99.90;;;;;;4928517;29;20213;-70
2023/10/27 14:16:57;;;;;;;3.07;0.40;;;14.30;99.90;;;;;;4923746;29;20211;-71
2023/10/27 14:19:27;;;;;;;1.77;0.40;;;14.50;99.90;;;;;;4934850;29;20312;-71
2023/10/27 14:21:54;;;;;;;1.33;0.40;;;14.60;99.90;;;;;;4934170;29;20559;-71
2023/10/27 14:24:21;;;;;;;3.27;0.40;;;14.80;99.90;;;;;;4934362;29;20592;-72
2023/10/27 14:26:49;;;;;;;1.60;0.70;;;14.90;99.90;;;;;;4930976;29;20212;-70
2023/10/27 14:29:15;;;;;;;1.47;0.50;;;15.00;99.90;;;;;;4919845;29;20276;-71
2023/10/27 14:31:44;;;;;;;0.80;0.40;;;15.00;99.90;;;;;;4934687;29;20247;-71
2023/10/27 14:34:11;;;;;;;2.20;0.57;;;15.10;99.90;;;;;;4933884;29;20208;-71
2023/10/27 14:36:39;;;;;;;1.30;0.50;;;15.20;99.90;;;;;;4934199;29;20288;-74
2023/10/27 14:39:06;;;;;;;1.63;0.60;;;15.20;99.90;;;;;;4935351;29;20735;-70
2023/10/27 14:41:34;;;;;;;3.80;0.70;;;15.20;99.90;;;;;;4934987;29;20303;-69
2023/10/27 14:44:01;;;;;;;1.47;0.60;;;15.30;99.90;;;;;;4932516;29;20840;-70
2023/10/27 14:46:30;;;;;;;2.37;0.77;;;15.30;99.90;;;;;;4934248;29;20205;-71
2023/10/27 14:48:59;;;;;;;1.47;0.60;;;15.20;99.90;;;;;;4936125;29;20233;-71
2023/10/27 14:51:26;;;;;;;4.10;0.63;;;15.20;99.90;;;;;;4935923;29;20247;-70
2023/10/27 14:53:54;;;;;;;1.57;0.50;;;15.20;99.90;;;;;;4933838;29;20247;-73
2023/10/27 14:56:20;;;;;;;1.10;0.50;;;15.40;99.90;;;;;;4919452;29;20217;-72
2023/10/27 14:58:52;;;;;;;1.50;0.50;;;15.40;99.90;;;;;;4916819;29;20229;-72
2023/10/27 15:01:19;;;;;;;1.60;0.50;;;15.30;99.90;;;;;;4935904;29;20208;-71
2023/10/27 15:03:47;;;;;;;3.63;0.60;;;15.20;99.90;;;;;;4934709;29;20219;-72
2023/10/27 15:06:15;;;;;;;1.60;0.67;;;15.20;99.90;;;;;;4934410;29;20620;-72
2023/10/27 15:08:42;;;;;;;2.43;0.53;;;15.10;99.90;;;;;;4935153;29;20251;-72
2023/10/27 15:11:09;;;;;;;5.10;1.13;;;15.10;99.90;;;;;;4935546;29;20337;-71
2023/10/27 15:13:36;;;;;;;3.00;0.87;;;15.10;99.90;;;;;;4935434;29;20660;-71
2023/10/27 15:16:05;;;;;;;4.43;1.37;;;15.10;99.90;;;;;;4932284;29;20608;-70
2023/10/27 15:18:32;;;;;;;4.17;1.00;;;15.20;99.90;;;;;;4935267;29;20219;-72
2023/10/27 15:21:00;;;;;;;2.73;1.00;;;15.00;99.90;;;;;;4935163;29;20213;-71
2023/10/27 15:23:28;;;;;;;4.17;0.77;;;14.90;99.90;;;;;;4927109;29;20206;-72
2023/10/27 15:25:57;;;;;;;2.67;1.10;;;14.90;99.90;;;;;;4930509;29;20209;-73
2023/10/27 15:28:24;;;;;;;1.77;1.17;;;14.80;99.90;;;;;;4935510;29;20212;-71
2023/10/27 15:31:07;;;;;;;2.20;0.80;;;14.70;99.90;;;;;;4935213;29;20394;-71
2023/10/27 15:33:36;;;;;;;3.23;1.00;;;14.50;99.90;;;;;;4935780;29;20216;-72
2023/10/27 15:36:05;;;;;;;2.83;0.70;;;14.50;99.90;;;;;;4931685;29;20216;-71
2023/10/27 15:38:34;;;;;;;3.10;0.80;;;14.30;99.90;;;;;;4935308;29;20212;-71
2023/10/27 15:41:03;;;;;;;2.87;1.17;;;14.30;99.90;;;;;;4935502;29;20295;-72
2023/10/27 15:43:30;;;;;;;4.83;0.90;;;14.20;99.90;;;;;;4935126;29;20221;-70
2023/10/27 15:46:01;;;;;;;2.47;1.03;;;14.20;99.90;;;;;;4930544;29;20209;-70
2023/10/27 15:48:29;;;;;;;3.13;1.20;;;14.30;99.90;;;;;;4935321;29;20208;-70
2023/10/27 15:50:58;;;;;;;2.87;1.20;;;14.40;99.90;;;;;;4922321;29;20241;-71
2023/10/27 15:53:26;;;;;;;4.33;0.77;;;14.40;99.90;;;;;;4916531;29;20210;-69
2023/10/27 15:55:54;;;;;;;5.33;1.20;;;14.40;99.90;;;;;;4928710;29;20213;-70
2023/10/27 15:58:21;;;;;;;9.07;2.50;;;14.30;99.90;;;;;;4935132;29;20660;-70
2023/10/27 16:00:49;;;;;;;2.77;0.73;;;14.30;99.90;;;;;;4935411;29;20231;-70
2023/10/27 16:03:16;;;;;;;4.00;1.60;;;14.20;99.90;;;;;;4935448;29;20293;-71
2023/10/27 16:05:42;;;;;;;4.40;2.37;;;14.20;99.90;;;;;;4929341;29;20221;-70
2023/10/27 16:08:09;;;;;;;5.83;1.50;;;14.00;99.90;;;;;;4935283;29;20660;-71
2023/10/27 16:10:36;;;;;;;3.53;1.37;;;13.90;99.90;;;;;;4934970;29;20237;-70
2023/10/27 16:13:05;;;;;;;2.17;1.00;;;13.90;99.90;;;;;;4934961;29;20215;-72
2023/10/27 16:15:32;;;;;;;4.80;2.10;;;13.80;99.90;;;;;;4929268;29;20217;-71
2023/10/27 16:17:58;;;;;;;6.13;1.97;;;13.70;99.90;;;;;;4920921;29;20210;-72
2023/10/27 16:20:26;;;;;;;4.87;1.93;;;13.70;99.90;;;;;;4927146;29;20231;-72
2023/10/27 16:22:52;;;;;;;2.87;1.70;;;13.60;99.90;;;;;;4938734;29;20209;-72
2023/10/27 16:25:19;;;;;;;3.07;1.07;;;13.60;99.90;;;;;;4931894;29;20216;-72
2023/10/27 16:27:46;;;;;;;3.20;1.47;;;13.40;99.90;;;;;;4938537;29;20219;-72
2023/10/27 16:30:14;;;;;;;2.10;0.80;;;13.40;99.90;;;;;;4938733;29;20231;-73
2023/10/27 16:32:41;;;;;;;4.80;1.33;;;13.30;99.90;;;;;;4938744;29;20213;-71
2023/10/27 16:35:08;;;;;;;3.93;0.83;;;13.20;99.90;;;;;;4931809;29;20219;-72
2023/10/27 16:37:35;;;;;;;2.73;1.30;;;13.10;99.90;;;;;;4938824;29;20213;-72
2023/10/27 16:40:03;;;;;;;3.13;0.60;;;13.00;99.90;;;;;;4938122;29;20316;-71
2023/10/27 16:42:30;;;;;;;2.23;0.87;;;13.00;99.90;;;;;;4938414;29;20624;-72
2023/10/27 16:44:56;;;;;;;1.27;0.80;;;12.90;99.90;;;;;;4926642;29;20213;-72
2023/10/27 16:47:25;;;;;;;3.37;1.80;;;12.80;99.90;;;;;;4937929;29;20664;-72
2023/10/27 16:49:51;;;;;;;4.60;1.10;;;12.70;99.90;;;;;;4937938;29;20225;-72
2023/10/27 16:52:18;;;;;;;4.57;2.00;;;12.70;99.90;;;;;;4938210;29;20242;-72
2023/10/27 16:54:45;;;;;;;3.43;1.20;;;12.50;99.90;;;;;;4929682;29;20672;-71
2023/10/27 16:57:13;;;;;;;6.60;1.57;;;12.50;99.90;;;;;;4938441;29;20304;-72
2023/10/27 16:59:41;;;;;;;4.30;1.90;;;12.40;99.90;;;;;;4937916;29;20221;-72
2023/10/27 17:02:10;;;;;;;7.00;1.93;;;12.40;99.90;;;;;;4917542;29;20300;-72
2023/10/27 17:04:38;;;;;;;5.47;2.10;;;12.30;99.90;;;;;;4927555;29;20692;-70
2023/10/27 17:07:05;;;;;;;4.03;1.67;;;12.30;99.90;;;;;;4935733;29;20296;-69
2023/10/27 17:09:32;;;;;;;4.87;1.73;;;12.30;99.90;;;;;;4936040;29;20229;-70
2023/10/27 17:11:59;;;;;;;6.80;2.90;;;12.20;99.90;;;;;;4927362;29;20253;-69
2023/10/27 17:14:26;;;;;;;5.43;1.83;;;12.20;99.90;;;;;;4928908;29;20221;-73
2023/10/27 17:16:53;;;;;;;3.63;1.40;;;12.20;99.90;;;;;;4933936;29;20234;-70
2023/10/27 17:19:20;;;;;;;6.67;2.33;;;12.10;99.90;;;;;;4935953;29;20317;-70
2023/10/27 17:21:48;;;;;;;5.90;1.80;;;12.10;99.90;;;;;;4936435;29;20215;-69
2023/10/27 17:24:15;;;;;;;2.53;1.43;;;12.10;99.90;;;;;;4931245;29;20300;-68
2023/10/27 17:26:42;;;;;;;3.30;1.47;;;12.00;99.90;;;;;;4930494;29;20209;-69
2023/10/27 17:29:09;;;;;;;7.80;1.67;;;12.00;99.90;;;;;;4926076;29;20623;-71
2023/10/27 17:31:36;;;;;;;4.53;1.50;;;11.90;99.90;;;;;;4919548;29;20241;-70
2023/10/27 17:34:03;;;;;;;5.90;1.90;;;11.90;99.90;;;;;;4933208;29;20217;-70
2023/10/27 17:36:35;;;;;;;6.63;2.33;;;11.80;99.90;;;;;;4927703;29;20209;-70
2023/10/27 17:39:03;;;;;;;4.43;1.83;;;11.80;99.90;;;;;;4927173;29;20229;-70
2023/10/27 17:41:32;;;;;;;8.17;2.10;;;11.80;99.90;;;;;;4935792;29;20288;-70
2023/10/27 17:43:59;;;;;;;6.07;2.60;;;11.80;99.90;;;;;;4933522;29;20232;-71
2023/10/27 17:46:26;;;;;;;4.80;2.47;;;11.80;99.90;;;;;;4933979;29;20209;-70
2023/10/27 17:48:54;;;;;;;6.83;2.17;;;11.70;99.90;;;;;;4936623;29;20229;-71
2023/10/27 17:51:20;;;;;;;9.03;1.93;;;11.70;99.90;;;;;;4936152;29;20271;-72
2023/10/27 17:53:47;;;;;;;5.43;2.50;;;11.60;99.90;;;;;;4935207;29;20208;-71
2023/10/27 17:56:16;;;;;;;2.87;1.57;;;11.60;99.90;;;;;;4926430;29;20661;-70
2023/10/27 17:58:44;;;;;;;3.77;1.50;;;11.60;99.90;;;;;;4931466;29;20237;-70
2023/10/27 18:01:12;;;;;;;5.37;1.63;;;11.50;99.90;;;;;;4933884;29;20219;-70
2023/10/27 18:03:39;;;;;;;2.77;1.53;;;11.40;99.90;;;;;;4921764;29;20213;-71
2023/10/27 18:06:07;;;;;;;5.73;1.47;;;11.40;99.90;;;;;;4925199;29;20206;-70
2023/10/27 18:08:35;;;;;;;3.77;1.60;;;11.30;99.90;;;;;;4935138;29;20212;-70
2023/10/27 18:11:02;;;;;;;3.47;1.83;;;11.30;99.90;;;;;;4934199;29;20591;-70
2023/10/27 18:13:30;;;;;;;5.20;1.63;;;11.30;99.90;;;;;;4936180;29;20313;-70
2023/10/27 18:16:00;;;;;;;3.00;1.60;;;11.30;99.90;;;;;;4927628;29;20213;-70
2023/10/27 18:18:31;;;;;;;3.57;1.60;;;11.30;99.90;;;;;;4936053;29;20728;-70
2023/10/27 18:21:00;;;;;;;5.83;2.10;;;11.20;99.90;;;;;;4930967;29;20245;-69
2023/10/27 18:23:27;;;;;;;5.17;1.97;;;11.10;99.90;;;;;;4927015;29;20209;-70
2023/10/27 18:25:54;;;;;;;6.43;2.70;;;11.20;99.90;;;;;;4936122;29;20215;-71
2023/10/27 18:28:21;;;;;;;7.47;2.73;;;11.20;99.90;;;;;;4934671;29;20220;-70
2023/10/27 18:30:49;;;;;;;4.67;2.10;;;11.20;99.90;;;;;;4922444;29;20226;-71
2023/10/27 18:33:17;;;;;;;4.33;1.77;;;11.10;99.90;;;;;;4934939;29;20215;-70
2023/10/27 18:35:44;;;;;;;5.40;1.50;;;11.10;99.90;;;;;;4935798;29;20209;-70
2023/10/27 18:38:13;;;;;;;2.43;1.23;;;11.10;99.90;;;;;;4934975;29;20303;-69
2023/10/27 18:40:40;;;;;;;4.47;1.70;;;11.10;99.90;;;;;;4934806;29;20323;-71
2023/10/27 18:43:07;;;;;;;11.57;1.77;;;11.10;99.90;;;;;;4935366;29;20689;-70
2023/10/27 18:45:34;;;;;;;6.97;1.63;;;11.10;99.90;;;;;;4925131;29;20217;-70
2023/10/27 18:48:04;;;;;;;5.77;1.40;;;11.10;99.90;;;;;;4935757;29;20255;-69
2023/10/27 18:50:31;;;;;;;5.33;1.73;;;11.10;99.90;;;;;;4923323;29;20229;-70
2023/10/27 18:52:58;;;;;;;3.40;1.50;;;11.10;99.90;;;;;;4935600;29;20228;-70
2023/10/27 18:55:24;;;;;;;8.07;2.40;;;11.10;99.90;;;;;;4935438;29;20215;-70
2023/10/27 18:57:52;;;;;;;6.77;2.17;;;11.10;99.90;;;;;;4928559;29;20210;-70
2023/10/27 19:00:22;;;;;;;2.40;1.23;;;11.10;99.90;;;;;;4925938;29;20236;-70
2023/10/27 19:02:50;;;;;;;3.13;1.30;;;11.10;99.90;;;;;;4925433;29;20209;-70
2023/10/27 19:05:19;;;;;;;3.03;1.20;;;11.10;99.90;;;;;;4922710;29;20213;-69
2023/10/27 19:07:46;;;;;;;5.10;1.40;;;11.10;99.90;;;;;;4935209;29;20212;-69
2023/10/27 19:10:13;;;;;;;4.40;1.47;;;11.10;99.90;;;;;;4934815;29;20224;-69
2023/10/27 19:12:41;;;;;;;3.30;1.17;;;11.10;99.90;;;;;;4933179;29;20236;-72
2023/10/27 19:15:11;;;;;;;5.80;1.40;;;11.10;99.90;;;;;;4935135;29;20209;-71
2023/10/27 19:17:39;;;;;;;3.43;1.40;;;11.00;99.90;;;;;;4925572;29;20209;-72
2023/10/27 19:20:09;;;;;;;5.93;1.77;;;11.00;99.90;;;;;;4932422;29;20224;-72
2023/10/27 19:22:38;;;;;;;3.60;1.77;;;11.10;99.90;;;;;;4932531;29;20205;-73
2023/10/27 19:25:06;;;;;;;6.17;1.60;;;11.00;99.90;;;;;;4935297;29;20204;-72
2023/10/27 19:27:34;;;;;;;4.93;1.57;;;11.00;99.90;;;;;;4935163;29;20246;-73
2023/10/27 19:30:02;;;;;;;3.43;1.87;;;11.00;99.90;;;;;;4930594;29;20225;-72
2023/10/27 19:32:28;;;;;;;3.80;1.30;;;11.00;99.90;;;;;;4927742;29;20704;-72
2023/10/27 19:34:56;;;;;;;3.43;1.00;;;11.00;99.90;;;;;;4934956;29;20205;-72
2023/10/27 19:37:22;;;;;;;2.60;1.10;;;11.10;99.90;;;;;;4924141;29;20220;-72
2023/10/27 19:39:52;;;;;;;4.67;1.23;;;11.00;99.90;;;;;;4933532;29;20231;-69
2023/10/27 19:42:20;;;;;;;5.63;1.40;;;11.00;99.90;;;;;;4934675;29;20275;-70
2023/10/27 19:44:48;;;;;;;4.83;1.00;;;11.00;99.90;;;;;;4935100;29;20209;-69
2023/10/27 19:47:15;;;;;;;1.90;1.00;;;10.90;99.90;;;;;;4935378;29;20217;-70
2023/10/27 19:49:45;;;;;;;3.00;1.30;;;11.00;99.90;;;;;;4935203;29;20228;-70
2023/10/27 19:52:12;;;;;;;2.10;1.10;;;10.90;99.90;;;;;;4937177;29;20236;-69
2023/10/27 19:54:39;;;;;;;3.10;1.30;;;10.90;99.90;;;;;;4939005;29;20200;-71
2023/10/27 19:57:07;;;;;;;9.67;1.53;;;11.00;99.90;;;;;;4938939;29;20212;-70
2023/10/27 19:59:34;;;;;;;4.20;1.50;;;10.90;99.90;;;;;;4938934;29;20234;-70
2023/10/27 20:02:01;;;;;;;6.13;1.33;;;11.00;99.90;;;;;;4938551;29;20232;-69
2023/10/27 20:04:28;;;;;;;5.37;1.33;;;11.00;99.90;;;;;;4938646;29;20660;-70
2023/10/27 20:06:54;;;;;;;6.43;1.70;;;11.00;99.90;;;;;;4938657;29;20292;-70
2023/10/27 20:09:22;;;;;;;5.13;1.60;;;11.10;99.90;;;;;;4938728;29;20229;-69
2023/10/27 20:11:50;;;;;;;2.27;1.10;;;11.10;99.90;;;;;;4938330;29;20278;-70
2023/10/27 20:14:18;;;;;;;4.63;1.20;;;11.10;99.90;;;;;;4938620;29;20213;-71
2023/10/27 20:16:45;;;;;;;4.90;1.30;;;11.00;99.90;;;;;;4938698;29;20375;-69
2023/10/27 20:19:12;;;;;;;6.47;1.50;;;11.00;99.90;;;;;;4938904;29;20644;-72
2023/10/27 20:21:41;;;;;;;8.00;1.60;;;11.00;99.90;;;;;;4938280;29;20220;-71
2023/10/27 20:24:08;;;;;;;5.83;1.23;;;11.00;99.90;;;;;;4938419;29;20211;-69
2023/10/27 20:26:38;;;;;;;6.30;1.30;;;11.10;99.90;;;;;;4938443;29;20213;-69
2023/10/27 20:29:05;;;;;;;3.80;1.20;;;11.10;99.90;;;;;;4938264;29;20733;-69
2023/10/27 20:31:33;;;;;;;4.67;1.27;;;11.10;99.90;;;;;;4938079;29;20236;-69
2023/10/27 20:34:00;;;;;;;3.03;1.13;;;11.10;99.90;;;;;;4938244;29;20642;-70
2023/10/27 20:36:27;;;;;;;5.40;1.30;;;11.10;99.90;;;;;;4934450;29;20212;-70
2023/10/27 20:38:54;;;;;;;3.70;1.07;;;11.10;99.90;;;;;;4942393;23;20587;-73
2023/10/27 20:41:21;;;;;;;4.73;1.67;;;11.10;99.90;;;;;;4937519;29;20227;-75
2023/10/27 20:43:47;;;;;;;3.47;1.30;;;11.10;99.90;;;;;;4938103;29;20235;-75
2023/10/27 20:46:14;;;;;;;5.50;1.40;;;11.10;99.90;;;;;;4938056;29;20205;-75
2023/10/27 20:48:43;;;;;;;2.60;1.00;;;11.10;99.90;;;;;;4938134;29;20240;-74
2023/10/27 20:51:10;;;;;;;7.07;1.20;;;11.10;99.90;;;;;;4920264;29;20264;-73
2023/10/27 20:53:36;;;;;;;6.13;1.60;;;11.10;99.90;;;;;;4930072;29;20243;-73
2023/10/27 20:56:05;;;;;;;4.57;1.53;;;11.20;99.90;;;;;;4920300;29;20298;-73
2023/10/27 20:58:32;;;;;;;4.03;1.13;;;11.20;99.90;;;;;;4918628;29;20214;-74
2023/10/27 21:01:05;;;;;;;5.40;1.13;;;11.30;99.90;;;;;;4936062;29;20300;-75
2023/10/27 21:03:32;;;;;;;4.63;1.10;;;11.30;99.90;;;;;;4925051;29;20209;-74
2023/10/27 21:06:00;;;;;;;3.13;1.07;;;11.40;99.90;;;;;;4925019;29;20209;-74
2023/10/27 21:08:27;;;;;;;5.40;1.30;;;11.40;99.90;;;;;;4924786;29;20209;-73
2023/10/27 21:10:54;;;;;;;7.00;1.30;;;11.40;99.90;;;;;;4919086;29;20212;-77
2023/10/27 21:13:21;;;;;;;8.20;1.43;;;11.40;99.90;;;;;;4918588;29;20705;-74
2023/10/27 21:15:48;;;;;;;4.07;1.30;;;11.40;99.90;;;;;;4918734;29;20216;-75
2023/10/27 21:18:15;;;;;;;5.23;0.97;;;11.40;99.90;;;;;;4918513;29;20299;-74
2023/10/27 21:20:42;;;;;;;3.87;1.33;;;11.50;99.90;;;;;;4919073;29;20235;-74
2023/10/27 21:23:10;;;;;;;2.40;0.90;;;11.50;99.90;;;;;;4931379;29;20220;-75
2023/10/27 21:25:37;;;;;;;4.03;1.00;;;11.50;99.90;;;;;;4918688;29;20213;-75
2023/10/27 21:28:05;;;;;;;4.03;1.10;;;11.50;99.90;;;;;;4918651;29;20209;-75
2023/10/27 21:30:32;;;;;;;6.53;1.27;;;11.40;99.90;;;;;;4918270;29;20230;-75
2023/10/27 21:32:59;;;;;;;2.87;0.90;;;11.40;99.90;;;;;;4906479;29;20327;-74